sensor_id;sensor_type;location;lat;lon;timestamp;P1;durP1;ratioP1;P2;durP2;ratioP2
73512;SDS011;61754;55.008;73.348;2022-08-01T00:01:50;10.50;;;9.50;;
73512;SDS011;61754;55.008;73.348;2022-08-01T00:04:16;11.40;;;10.20;;
73512;SDS011;61754;55.008;73.348;2022-08-01T00:06:42;13.15;;;9.95;;
73512;SDS011;61754;55.008;73.348;2022-08-01T00:09:14;11.85;;;10.32;;
73512;SDS011;61754;55.008;73.348;2022-08-01T00:11:40;11.02;;;9.93;;
73512;SDS011;61754;55.008;73.348;2022-08-01T00:14:12;14.07;;;11.05;;
73512;SDS011;61754;55.008;73.348;2022-08-01T00:16:38;11.68;;;10.43;;
73512;SDS011;61754;55.008;73.348;2022-08-01T00:19:04;12.50;;;10.60;;
73512;SDS011;61754;55.008;73.348;2022-08-01T00:21:30;12.40;;;11.00;;
73512;SDS011;61754;55.008;73.348;2022-08-01T00:24:02;17.50;;;10.50;;
73512;SDS011;61754;55.008;73.348;2022-08-01T00:26:28;16.52;;;9.95;;
73512;SDS011;61754;55.008;73.348;2022-08-01T00:28:54;13.85;;;10.73;;
73512;SDS011;61754;55.008;73.348;2022-08-01T00:31:27;11.30;;;10.15;;
73512;SDS011;61754;55.008;73.348;2022-08-01T00:33:56;13.38;;;10.02;;
73512;SDS011;61754;55.008;73.348;2022-08-01T00:36:25;14.02;;;11.75;;
73512;SDS011;61754;55.008;73.348;2022-08-01T00:38:52;11.32;;;10.23;;
73512;SDS011;61754;55.008;73.348;2022-08-01T00:41:27;12.38;;;11.13;;
73512;SDS011;61754;55.008;73.348;2022-08-01T00:43:54;12.98;;;11.07;;
73512;SDS011;61754;55.008;73.348;2022-08-01T00:46:20;16.88;;;12.20;;
73512;SDS011;61754;55.008;73.348;2022-08-01T00:48:46;13.80;;;11.57;;
73512;SDS011;61754;55.008;73.348;2022-08-01T00:51:12;12.60;;;10.70;;
73512;SDS011;61754;55.008;73.348;2022-08-01T00:53:38;15.75;;;11.70;;
73512;SDS011;61754;55.008;73.348;2022-08-01T00:56:05;13.02;;;11.65;;
73512;SDS011;61754;55.008;73.348;2022-08-01T00:58:31;20.90;;;17.55;;
73512;SDS011;61754;55.008;73.348;2022-08-01T01:00:58;20.20;;;17.13;;
73512;SDS011;61754;55.008;73.348;2022-08-01T01:03:24;23.10;;;16.95;;
73512;SDS011;61754;55.008;73.348;2022-08-01T01:06:01;13.27;;;11.65;;
73512;SDS011;61754;55.008;73.348;2022-08-01T01:11:28;14.23;;;10.27;;
73512;SDS011;61754;55.008;73.348;2022-08-01T01:14:00;11.70;;;10.47;;
73512;SDS011;61754;55.008;73.348;2022-08-01T01:16:27;12.80;;;10.63;;
73512;SDS011;61754;55.008;73.348;2022-08-01T01:18:57;16.10;;;11.85;;
73512;SDS011;61754;55.008;73.348;2022-08-01T01:29:38;19.35;;;13.05;;
73512;SDS011;61754;55.008;73.348;2022-08-01T01:32:19;12.63;;;11.35;;
73512;SDS011;61754;55.008;73.348;2022-08-01T01:34:49;23.08;;;11.23;;
73512;SDS011;61754;55.008;73.348;2022-08-01T01:37:25;18.42;;;12.48;;
73512;SDS011;61754;55.008;73.348;2022-08-01T01:39:52;16.42;;;11.25;;
73512;SDS011;61754;55.008;73.348;2022-08-01T01:42:19;18.13;;;11.52;;
73512;SDS011;61754;55.008;73.348;2022-08-01T01:44:50;12.82;;;10.68;;
73512;SDS011;61754;55.008;73.348;2022-08-01T01:47:17;24.70;;;15.18;;
73512;SDS011;61754;55.008;73.348;2022-08-01T01:49:46;18.83;;;11.75;;
73512;SDS011;61754;55.008;73.348;2022-08-01T01:52:13;14.60;;;11.38;;
73512;SDS011;61754;55.008;73.348;2022-08-01T01:54:40;15.73;;;11.20;;
73512;SDS011;61754;55.008;73.348;2022-08-01T01:57:17;11.82;;;10.32;;
73512;SDS011;61754;55.008;73.348;2022-08-01T01:59:44;14.30;;;11.02;;
73512;SDS011;61754;55.008;73.348;2022-08-01T02:02:11;13.27;;;10.68;;
73512;SDS011;61754;55.008;73.348;2022-08-01T02:04:40;16.48;;;11.50;;
73512;SDS011;61754;55.008;73.348;2022-08-01T02:07:14;18.02;;;11.38;;
73512;SDS011;61754;55.008;73.348;2022-08-01T02:09:42;12.63;;;10.60;;
73512;SDS011;61754;55.008;73.348;2022-08-01T02:12:11;11.40;;;10.00;;
73512;SDS011;61754;55.008;73.348;2022-08-01T02:14:38;13.48;;;10.98;;
73512;SDS011;61754;55.008;73.348;2022-08-01T02:17:11;11.73;;;10.35;;
73512;SDS011;61754;55.008;73.348;2022-08-01T02:19:38;10.90;;;9.80;;
73512;SDS011;61754;55.008;73.348;2022-08-01T02:22:05;13.10;;;10.63;;
73512;SDS011;61754;55.008;73.348;2022-08-01T02:24:50;11.48;;;10.05;;
73512;SDS011;61754;55.008;73.348;2022-08-01T02:27:17;12.02;;;10.15;;
73512;SDS011;61754;55.008;73.348;2022-08-01T02:32:18;15.65;;;9.73;;
73512;SDS011;61754;55.008;73.348;2022-08-01T02:34:55;13.82;;;10.15;;
73512;SDS011;61754;55.008;73.348;2022-08-01T02:37:22;11.05;;;9.80;;
73512;SDS011;61754;55.008;73.348;2022-08-01T02:39:54;11.32;;;10.15;;
73512;SDS011;61754;55.008;73.348;2022-08-01T02:42:30;20.40;;;11.30;;
73512;SDS011;61754;55.008;73.348;2022-08-01T02:44:57;17.60;;;10.07;;
73512;SDS011;61754;55.008;73.348;2022-08-01T02:47:24;12.68;;;10.43;;
73512;SDS011;61754;55.008;73.348;2022-08-01T02:49:52;13.95;;;10.90;;
73512;SDS011;61754;55.008;73.348;2022-08-01T02:52:18;11.50;;;9.68;;
73512;SDS011;61754;55.008;73.348;2022-08-01T02:54:47;15.90;;;10.90;;
73512;SDS011;61754;55.008;73.348;2022-08-01T02:57:14;15.68;;;11.27;;
73512;SDS011;61754;55.008;73.348;2022-08-01T02:59:41;17.60;;;9.70;;
73512;SDS011;61754;55.008;73.348;2022-08-01T03:02:07;11.88;;;10.73;;
73512;SDS011;61754;55.008;73.348;2022-08-01T03:04:35;15.30;;;10.93;;
73512;SDS011;61754;55.008;73.348;2022-08-01T03:07:03;16.58;;;10.55;;
73512;SDS011;61754;55.008;73.348;2022-08-01T03:09:29;13.73;;;11.23;;
73512;SDS011;61754;55.008;73.348;2022-08-01T03:11:57;18.65;;;11.90;;
73512;SDS011;61754;55.008;73.348;2022-08-01T03:14:24;13.52;;;11.07;;
73512;SDS011;61754;55.008;73.348;2022-08-01T03:16:51;13.25;;;11.63;;
73512;SDS011;61754;55.008;73.348;2022-08-01T03:19:18;12.60;;;10.98;;
73512;SDS011;61754;55.008;73.348;2022-08-01T03:21:44;13.48;;;11.68;;
73512;SDS011;61754;55.008;73.348;2022-08-01T03:24:11;19.08;;;11.57;;
73512;SDS011;61754;55.008;73.348;2022-08-01T03:26:38;13.27;;;11.82;;
73512;SDS011;61754;55.008;73.348;2022-08-01T03:29:05;17.17;;;12.23;;
73512;SDS011;61754;55.008;73.348;2022-08-01T03:31:34;14.48;;;12.90;;
73512;SDS011;61754;55.008;73.348;2022-08-01T03:34:00;13.00;;;11.80;;
73512;SDS011;61754;55.008;73.348;2022-08-01T03:36:27;14.43;;;12.13;;
73512;SDS011;61754;55.008;73.348;2022-08-01T03:38:56;21.08;;;13.70;;
73512;SDS011;61754;55.008;73.348;2022-08-01T03:41:24;12.80;;;11.13;;
73512;SDS011;61754;55.008;73.348;2022-08-01T03:46:41;14.07;;;12.63;;
73512;SDS011;61754;55.008;73.348;2022-08-01T03:49:10;15.35;;;13.20;;
73512;SDS011;61754;55.008;73.348;2022-08-01T03:51:43;14.75;;;13.35;;
73512;SDS011;61754;55.008;73.348;2022-08-01T03:54:10;14.85;;;13.30;;
73512;SDS011;61754;55.008;73.348;2022-08-01T03:56:36;15.85;;;14.25;;
73512;SDS011;61754;55.008;73.348;2022-08-01T03:59:03;21.25;;;13.10;;
73512;SDS011;61754;55.008;73.348;2022-08-01T04:01:30;14.57;;;13.35;;
73512;SDS011;61754;55.008;73.348;2022-08-01T04:03:58;18.40;;;13.65;;
73512;SDS011;61754;55.008;73.348;2022-08-01T04:06:24;15.75;;;14.15;;
73512;SDS011;61754;55.008;73.348;2022-08-01T04:08:50;23.13;;;14.45;;
73512;SDS011;61754;55.008;73.348;2022-08-01T04:11:25;17.05;;;15.30;;
73512;SDS011;61754;55.008;73.348;2022-08-01T04:13:52;16.73;;;14.98;;
73512;SDS011;61754;55.008;73.348;2022-08-01T04:16:19;17.73;;;15.15;;
73512;SDS011;61754;55.008;73.348;2022-08-01T04:18:45;20.08;;;15.60;;
73512;SDS011;61754;55.008;73.348;2022-08-01T04:21:12;19.13;;;15.38;;
73512;SDS011;61754;55.008;73.348;2022-08-01T04:23:39;17.27;;;15.60;;
73512;SDS011;61754;55.008;73.348;2022-08-01T04:26:06;28.95;;;16.60;;
73512;SDS011;61754;55.008;73.348;2022-08-01T04:28:34;16.65;;;14.95;;
73512;SDS011;61754;55.008;73.348;2022-08-01T04:31:01;20.35;;;15.48;;
73512;SDS011;61754;55.008;73.348;2022-08-01T04:33:28;30.83;;;16.77;;
73512;SDS011;61754;55.008;73.348;2022-08-01T04:36:05;30.45;;;18.35;;
73512;SDS011;61754;55.008;73.348;2022-08-01T04:38:33;36.22;;;18.35;;
73512;SDS011;61754;55.008;73.348;2022-08-01T04:41:02;23.90;;;16.55;;
73512;SDS011;61754;55.008;73.348;2022-08-01T04:43:36;20.90;;;17.05;;
73512;SDS011;61754;55.008;73.348;2022-08-01T04:46:02;22.10;;;16.38;;
73512;SDS011;61754;55.008;73.348;2022-08-01T04:48:32;18.23;;;16.25;;
73512;SDS011;61754;55.008;73.348;2022-08-01T04:51:00;16.25;;;14.63;;
73512;SDS011;61754;55.008;73.348;2022-08-01T04:53:26;18.58;;;16.35;;
73512;SDS011;61754;55.008;73.348;2022-08-01T04:55:53;17.77;;;16.13;;
73512;SDS011;61754;55.008;73.348;2022-08-01T04:58:19;16.15;;;14.70;;
73512;SDS011;61754;55.008;73.348;2022-08-01T05:00:45;18.67;;;15.23;;
73512;SDS011;61754;55.008;73.348;2022-08-01T05:03:16;18.43;;;16.53;;
73512;SDS011;61754;55.008;73.348;2022-08-01T05:05:43;16.45;;;14.73;;
73512;SDS011;61754;55.008;73.348;2022-08-01T05:08:09;16.33;;;14.65;;
73512;SDS011;61754;55.008;73.348;2022-08-01T05:10:35;17.10;;;15.20;;
73512;SDS011;61754;55.008;73.348;2022-08-01T05:13:01;16.05;;;13.55;;
73512;SDS011;61754;55.008;73.348;2022-08-01T05:15:27;18.27;;;16.55;;
73512;SDS011;61754;55.008;73.348;2022-08-01T05:17:54;18.65;;;17.05;;
73512;SDS011;61754;55.008;73.348;2022-08-01T05:20:21;19.05;;;16.38;;
73512;SDS011;61754;55.008;73.348;2022-08-01T05:22:47;17.50;;;15.90;;
73512;SDS011;61754;55.008;73.348;2022-08-01T05:25:23;16.77;;;14.98;;
73512;SDS011;61754;55.008;73.348;2022-08-01T05:27:49;17.20;;;15.48;;
73512;SDS011;61754;55.008;73.348;2022-08-01T05:30:15;21.33;;;16.83;;
73512;SDS011;61754;55.008;73.348;2022-08-01T05:32:42;17.88;;;15.98;;
73512;SDS011;61754;55.008;73.348;2022-08-01T05:35:08;19.92;;;16.02;;
73512;SDS011;61754;55.008;73.348;2022-08-01T05:37:34;18.20;;;14.43;;
73512;SDS011;61754;55.008;73.348;2022-08-01T05:40:00;16.95;;;15.35;;
73512;SDS011;61754;55.008;73.348;2022-08-01T05:42:26;17.55;;;15.70;;
73512;SDS011;61754;55.008;73.348;2022-08-01T05:44:55;16.92;;;15.15;;
73512;SDS011;61754;55.008;73.348;2022-08-01T05:47:21;18.73;;;17.02;;
73512;SDS011;61754;55.008;73.348;2022-08-01T05:49:47;19.17;;;16.85;;
73512;SDS011;61754;55.008;73.348;2022-08-01T05:52:32;19.15;;;16.45;;
73512;SDS011;61754;55.008;73.348;2022-08-01T05:55:00;19.80;;;15.98;;
73512;SDS011;61754;55.008;73.348;2022-08-01T05:57:36;20.13;;;14.73;;
73512;SDS011;61754;55.008;73.348;2022-08-01T06:00:03;16.48;;;14.40;;
73512;SDS011;61754;55.008;73.348;2022-08-01T06:02:39;16.70;;;13.95;;
73512;SDS011;61754;55.008;73.348;2022-08-01T06:05:05;14.48;;;12.98;;
73512;SDS011;61754;55.008;73.348;2022-08-01T06:07:42;17.33;;;13.25;;
73512;SDS011;61754;55.008;73.348;2022-08-01T06:10:08;16.25;;;13.80;;
73512;SDS011;61754;55.008;73.348;2022-08-01T06:12:35;13.73;;;12.43;;
73512;SDS011;61754;55.008;73.348;2022-08-01T06:15:01;16.02;;;13.07;;
73512;SDS011;61754;55.008;73.348;2022-08-01T06:17:28;14.30;;;12.45;;
73512;SDS011;61754;55.008;73.348;2022-08-01T06:19:54;13.90;;;12.55;;
73512;SDS011;61754;55.008;73.348;2022-08-01T06:22:20;12.88;;;11.68;;
73512;SDS011;61754;55.008;73.348;2022-08-01T06:24:46;15.02;;;13.00;;
73512;SDS011;61754;55.008;73.348;2022-08-01T06:27:12;20.00;;;14.55;;
73512;SDS011;61754;55.008;73.348;2022-08-01T06:29:38;15.75;;;14.18;;
73512;SDS011;61754;55.008;73.348;2022-08-01T06:32:04;19.10;;;13.18;;
73512;SDS011;61754;55.008;73.348;2022-08-01T06:34:30;18.30;;;14.35;;
73512;SDS011;61754;55.008;73.348;2022-08-01T06:36:56;21.88;;;14.60;;
73512;SDS011;61754;55.008;73.348;2022-08-01T06:39:22;19.38;;;13.63;;
73512;SDS011;61754;55.008;73.348;2022-08-01T06:41:48;18.95;;;15.02;;
73512;SDS011;61754;55.008;73.348;2022-08-01T06:44:14;18.60;;;15.32;;
73512;SDS011;61754;55.008;73.348;2022-08-01T06:46:40;20.48;;;15.73;;
73512;SDS011;61754;55.008;73.348;2022-08-01T06:49:09;21.48;;;16.23;;
73512;SDS011;61754;55.008;73.348;2022-08-01T06:51:36;18.08;;;15.55;;
73512;SDS011;61754;55.008;73.348;2022-08-01T06:54:11;23.17;;;14.10;;
73512;SDS011;61754;55.008;73.348;2022-08-01T06:56:37;17.27;;;14.43;;
73512;SDS011;61754;55.008;73.348;2022-08-01T06:59:03;21.80;;;14.57;;
73512;SDS011;61754;55.008;73.348;2022-08-01T07:01:29;15.93;;;14.20;;
73512;SDS011;61754;55.008;73.348;2022-08-01T07:03:55;15.85;;;13.00;;
73512;SDS011;61754;55.008;73.348;2022-08-01T07:06:27;15.20;;;13.60;;
73512;SDS011;61754;55.008;73.348;2022-08-01T07:08:53;14.15;;;12.75;;
73512;SDS011;61754;55.008;73.348;2022-08-01T07:11:19;14.00;;;12.65;;
73512;SDS011;61754;55.008;73.348;2022-08-01T07:13:46;13.93;;;12.52;;
73512;SDS011;61754;55.008;73.348;2022-08-01T07:16:13;14.50;;;13.07;;
73512;SDS011;61754;55.008;73.348;2022-08-01T07:18:39;14.63;;;13.10;;
73512;SDS011;61754;55.008;73.348;2022-08-01T07:21:05;14.18;;;12.57;;
73512;SDS011;61754;55.008;73.348;2022-08-01T07:23:31;14.13;;;12.73;;
73512;SDS011;61754;55.008;73.348;2022-08-01T07:26:08;14.35;;;12.85;;
73512;SDS011;61754;55.008;73.348;2022-08-01T07:28:34;16.48;;;12.55;;
73512;SDS011;61754;55.008;73.348;2022-08-01T07:31:08;21.75;;;15.95;;
73512;SDS011;61754;55.008;73.348;2022-08-01T07:33:34;18.02;;;12.52;;
73512;SDS011;61754;55.008;73.348;2022-08-01T07:36:00;12.95;;;11.20;;
73512;SDS011;61754;55.008;73.348;2022-08-01T07:38:30;13.60;;;11.93;;
73512;SDS011;61754;55.008;73.348;2022-08-01T07:40:56;12.05;;;10.93;;
73512;SDS011;61754;55.008;73.348;2022-08-01T07:43:22;12.73;;;11.50;;
73512;SDS011;61754;55.008;73.348;2022-08-01T07:45:48;17.02;;;12.25;;
73512;SDS011;61754;55.008;73.348;2022-08-01T07:48:14;20.70;;;10.40;;
73512;SDS011;61754;55.008;73.348;2022-08-01T07:50:40;11.43;;;10.05;;
73512;SDS011;61754;55.008;73.348;2022-08-01T07:53:16;14.43;;;10.98;;
73512;SDS011;61754;55.008;73.348;2022-08-01T07:55:42;11.90;;;10.80;;
73512;SDS011;61754;55.008;73.348;2022-08-01T07:58:09;15.98;;;10.88;;
73512;SDS011;61754;55.008;73.348;2022-08-01T08:00:35;13.98;;;10.65;;
73512;SDS011;61754;55.008;73.348;2022-08-01T08:03:01;13.70;;;9.80;;
73512;SDS011;61754;55.008;73.348;2022-08-01T08:05:27;13.13;;;10.20;;
73512;SDS011;61754;55.008;73.348;2022-08-01T08:07:53;11.40;;;10.23;;
73512;SDS011;61754;55.008;73.348;2022-08-01T08:10:19;11.45;;;10.18;;
73512;SDS011;61754;55.008;73.348;2022-08-01T08:12:45;14.05;;;9.93;;
73512;SDS011;61754;55.008;73.348;2022-08-01T08:15:14;11.95;;;10.73;;
73512;SDS011;61754;55.008;73.348;2022-08-01T08:17:40;13.00;;;9.73;;
73512;SDS011;61754;55.008;73.348;2022-08-01T08:20:06;17.73;;;9.15;;
73512;SDS011;61754;55.008;73.348;2022-08-01T08:22:42;9.93;;;8.85;;
73512;SDS011;61754;55.008;73.348;2022-08-01T08:25:08;14.48;;;8.10;;
73512;SDS011;61754;55.008;73.348;2022-08-01T08:27:34;28.33;;;6.28;;
73512;SDS011;61754;55.008;73.348;2022-08-01T08:30:01;12.60;;;4.93;;
73512;SDS011;61754;55.008;73.348;2022-08-01T08:32:27;21.63;;;4.50;;
73512;SDS011;61754;55.008;73.348;2022-08-01T08:34:53;10.63;;;4.82;;
73512;SDS011;61754;55.008;73.348;2022-08-01T08:37:19;7.18;;;3.80;;
73512;SDS011;61754;55.008;73.348;2022-08-01T08:39:50;8.30;;;3.10;;
73512;SDS011;61754;55.008;73.348;2022-08-01T08:42:16;12.38;;;3.20;;
73512;SDS011;61754;55.008;73.348;2022-08-01T08:44:42;6.00;;;2.95;;
73512;SDS011;61754;55.008;73.348;2022-08-01T08:47:08;13.25;;;3.67;;
73512;SDS011;61754;55.008;73.348;2022-08-01T08:49:36;4.38;;;3.20;;
73512;SDS011;61754;55.008;73.348;2022-08-01T08:52:03;8.40;;;3.38;;
73512;SDS011;61754;55.008;73.348;2022-08-01T08:54:30;6.45;;;3.22;;
73512;SDS011;61754;55.008;73.348;2022-08-01T08:56:56;19.45;;;3.78;;
73512;SDS011;61754;55.008;73.348;2022-08-01T08:59:23;7.80;;;3.60;;
73512;SDS011;61754;55.008;73.348;2022-08-01T09:01:52;6.03;;;2.80;;
73512;SDS011;61754;55.008;73.348;2022-08-01T09:04:18;7.75;;;3.33;;
73512;SDS011;61754;55.008;73.348;2022-08-01T09:06:48;5.80;;;3.15;;
73512;SDS011;61754;55.008;73.348;2022-08-01T09:09:14;7.80;;;3.25;;
73512;SDS011;61754;55.008;73.348;2022-08-01T09:11:40;5.72;;;3.13;;
73512;SDS011;61754;55.008;73.348;2022-08-01T09:14:08;4.70;;;2.80;;
73512;SDS011;61754;55.008;73.348;2022-08-01T09:16:35;3.65;;;2.50;;
73512;SDS011;61754;55.008;73.348;2022-08-01T09:21:33;2.70;;;2.50;;
73512;SDS011;61754;55.008;73.348;2022-08-01T09:24:12;4.65;;;3.00;;
73512;SDS011;61754;55.008;73.348;2022-08-01T09:26:38;8.05;;;3.70;;
73512;SDS011;61754;55.008;73.348;2022-08-01T09:29:06;8.18;;;4.95;;
73512;SDS011;61754;55.008;73.348;2022-08-01T09:31:39;14.60;;;6.63;;
73512;SDS011;61754;55.008;73.348;2022-08-01T09:34:06;18.45;;;6.00;;
73512;SDS011;61754;55.008;73.348;2022-08-01T09:36:45;5.85;;;2.85;;
73512;SDS011;61754;55.008;73.348;2022-08-01T09:39:25;4.15;;;2.40;;
73512;SDS011;61754;55.008;73.348;2022-08-01T09:41:52;3.30;;;2.30;;
73512;SDS011;61754;55.008;73.348;2022-08-01T09:44:19;11.00;;;2.83;;
73512;SDS011;61754;55.008;73.348;2022-08-01T09:46:54;3.42;;;2.35;;
73512;SDS011;61754;55.008;73.348;2022-08-01T09:49:27;7.93;;;2.40;;
73512;SDS011;61754;55.008;73.348;2022-08-01T09:52:14;4.15;;;2.38;;
73512;SDS011;61754;55.008;73.348;2022-08-01T09:54:40;7.32;;;2.80;;
73512;SDS011;61754;55.008;73.348;2022-08-01T09:57:13;5.07;;;2.17;;
73512;SDS011;61754;55.008;73.348;2022-08-01T09:59:51;3.25;;;1.77;;
73512;SDS011;61754;55.008;73.348;2022-08-01T10:02:27;5.03;;;2.10;;
73512;SDS011;61754;55.008;73.348;2022-08-01T10:05:05;7.53;;;2.30;;
73512;SDS011;61754;55.008;73.348;2022-08-01T10:07:32;3.88;;;2.60;;
73512;SDS011;61754;55.008;73.348;2022-08-01T10:10:11;5.45;;;2.42;;
73512;SDS011;61754;55.008;73.348;2022-08-01T10:12:37;8.43;;;2.20;;
73512;SDS011;61754;55.008;73.348;2022-08-01T10:15:03;3.08;;;1.83;;
73512;SDS011;61754;55.008;73.348;2022-08-01T10:17:30;7.80;;;1.75;;
73512;SDS011;61754;55.008;73.348;2022-08-01T10:20:03;9.00;;;2.15;;
73512;SDS011;61754;55.008;73.348;2022-08-01T10:22:30;4.82;;;2.53;;
73512;SDS011;61754;55.008;73.348;2022-08-01T10:24:56;4.78;;;2.25;;
73512;SDS011;61754;55.008;73.348;2022-08-01T10:27:24;5.60;;;2.10;;
73512;SDS011;61754;55.008;73.348;2022-08-01T10:29:57;4.72;;;2.47;;
73512;SDS011;61754;55.008;73.348;2022-08-01T10:32:30;6.10;;;2.30;;
73512;SDS011;61754;55.008;73.348;2022-08-01T10:34:56;4.05;;;2.20;;
73512;SDS011;61754;55.008;73.348;2022-08-01T10:37:22;4.75;;;2.10;;
73512;SDS011;61754;55.008;73.348;2022-08-01T10:39:50;5.07;;;1.63;;
73512;SDS011;61754;55.008;73.348;2022-08-01T10:42:16;6.90;;;2.10;;
73512;SDS011;61754;55.008;73.348;2022-08-01T10:44:43;7.28;;;2.20;;
73512;SDS011;61754;55.008;73.348;2022-08-01T10:47:13;5.63;;;2.20;;
73512;SDS011;61754;55.008;73.348;2022-08-01T10:49:48;6.13;;;2.15;;
73512;SDS011;61754;55.008;73.348;2022-08-01T10:52:19;7.53;;;2.00;;
73512;SDS011;61754;55.008;73.348;2022-08-01T10:54:46;1.60;;;1.35;;
73512;SDS011;61754;55.008;73.348;2022-08-01T10:57:13;3.80;;;1.95;;
73512;SDS011;61754;55.008;73.348;2022-08-01T10:59:49;6.10;;;1.90;;
73512;SDS011;61754;55.008;73.348;2022-08-01T11:02:31;5.10;;;1.70;;
73512;SDS011;61754;55.008;73.348;2022-08-01T11:05:07;5.35;;;2.00;;
73512;SDS011;61754;55.008;73.348;2022-08-01T11:07:41;5.78;;;1.90;;
73512;SDS011;61754;55.008;73.348;2022-08-01T11:10:19;4.60;;;1.67;;
73512;SDS011;61754;55.008;73.348;2022-08-01T11:12:52;5.13;;;1.92;;
73512;SDS011;61754;55.008;73.348;2022-08-01T11:15:19;1.40;;;1.30;;
73512;SDS011;61754;55.008;73.348;2022-08-01T11:17:54;5.93;;;1.33;;
73512;SDS011;61754;55.008;73.348;2022-08-01T11:20:22;6.93;;;1.50;;
73512;SDS011;61754;55.008;73.348;2022-08-01T11:30:56;4.53;;;1.05;;
73512;SDS011;61754;55.008;73.348;2022-08-01T11:38:40;6.93;;;1.73;;
73512;SDS011;61754;55.008;73.348;2022-08-01T11:41:25;5.50;;;1.35;;
73512;SDS011;61754;55.008;73.348;2022-08-01T11:51:59;9.73;;;1.13;;
73512;SDS011;61754;55.008;73.348;2022-08-01T11:54:29;6.10;;;1.15;;
73512;SDS011;61754;55.008;73.348;2022-08-01T11:57:02;12.05;;;1.92;;
73512;SDS011;61754;55.008;73.348;2022-08-01T11:59:31;4.88;;;1.60;;
73512;SDS011;61754;55.008;73.348;2022-08-01T12:04:46;4.80;;;1.50;;
73512;SDS011;61754;55.008;73.348;2022-08-01T12:07:16;4.95;;;1.27;;
73512;SDS011;61754;55.008;73.348;2022-08-01T12:09:42;5.18;;;1.35;;
73512;SDS011;61754;55.008;73.348;2022-08-01T12:12:18;5.22;;;1.27;;
73512;SDS011;61754;55.008;73.348;2022-08-01T12:14:45;10.98;;;1.75;;
73512;SDS011;61754;55.008;73.348;2022-08-01T12:17:11;35.33;;;2.38;;
73512;SDS011;61754;55.008;73.348;2022-08-01T12:19:37;4.22;;;1.10;;
73512;SDS011;61754;55.008;73.348;2022-08-01T12:22:08;4.07;;;1.60;;
73512;SDS011;61754;55.008;73.348;2022-08-01T12:24:43;10.57;;;1.52;;
73512;SDS011;61754;55.008;73.348;2022-08-01T12:27:28;11.73;;;2.22;;
73512;SDS011;61754;55.008;73.348;2022-08-01T12:30:00;5.65;;;1.00;;
73512;SDS011;61754;55.008;73.348;2022-08-01T12:32:28;6.28;;;0.80;;
73512;SDS011;61754;55.008;73.348;2022-08-01T12:37:28;7.78;;;1.73;;
73512;SDS011;61754;55.008;73.348;2022-08-01T12:39:54;6.95;;;1.10;;
73512;SDS011;61754;55.008;73.348;2022-08-01T12:42:21;3.90;;;1.00;;
73512;SDS011;61754;55.008;73.348;2022-08-01T12:44:48;4.85;;;1.40;;
73512;SDS011;61754;55.008;73.348;2022-08-01T12:47:17;7.28;;;1.40;;
73512;SDS011;61754;55.008;73.348;2022-08-01T12:49:43;5.75;;;1.10;;
73512;SDS011;61754;55.008;73.348;2022-08-01T12:52:10;9.52;;;1.30;;
73512;SDS011;61754;55.008;73.348;2022-08-01T12:57:22;1.83;;;0.90;;
73512;SDS011;61754;55.008;73.348;2022-08-01T13:02:33;1.90;;;1.30;;
73512;SDS011;61754;55.008;73.348;2022-08-01T13:04:59;6.60;;;1.17;;
73512;SDS011;61754;55.008;73.348;2022-08-01T13:07:47;7.07;;;1.65;;
73512;SDS011;61754;55.008;73.348;2022-08-01T13:12:39;4.65;;;1.65;;
73512;SDS011;61754;55.008;73.348;2022-08-01T13:15:26;4.57;;;1.33;;
73512;SDS011;61754;55.008;73.348;2022-08-01T13:17:59;5.88;;;1.38;;
73512;SDS011;61754;55.008;73.348;2022-08-01T13:20:26;8.77;;;1.73;;
73512;SDS011;61754;55.008;73.348;2022-08-01T13:22:53;3.72;;;1.45;;
73512;SDS011;61754;55.008;73.348;2022-08-01T13:25:19;3.50;;;1.73;;
73512;SDS011;61754;55.008;73.348;2022-08-01T13:27:47;6.65;;;1.50;;
73512;SDS011;61754;55.008;73.348;2022-08-01T13:30:16;3.05;;;1.30;;
73512;SDS011;61754;55.008;73.348;2022-08-01T13:32:44;4.20;;;1.52;;
73512;SDS011;61754;55.008;73.348;2022-08-01T13:35:15;7.47;;;1.80;;
73512;SDS011;61754;55.008;73.348;2022-08-01T13:37:51;2.85;;;1.65;;
73512;SDS011;61754;55.008;73.348;2022-08-01T13:40:24;4.70;;;1.80;;
73512;SDS011;61754;55.008;73.348;2022-08-01T13:42:51;3.63;;;1.30;;
73512;SDS011;61754;55.008;73.348;2022-08-01T13:45:17;4.82;;;1.40;;
73512;SDS011;61754;55.008;73.348;2022-08-01T13:47:43;4.03;;;1.38;;
73512;SDS011;61754;55.008;73.348;2022-08-01T13:50:10;1.27;;;1.17;;
73512;SDS011;61754;55.008;73.348;2022-08-01T13:52:36;7.95;;;1.27;;
73512;SDS011;61754;55.008;73.348;2022-08-01T13:55:03;5.60;;;1.20;;
73512;SDS011;61754;55.008;73.348;2022-08-01T13:57:29;9.32;;;1.55;;
73512;SDS011;61754;55.008;73.348;2022-08-01T13:59:55;8.23;;;1.65;;
73512;SDS011;61754;55.008;73.348;2022-08-01T14:02:25;3.55;;;1.65;;
73512;SDS011;61754;55.008;73.348;2022-08-01T14:04:55;2.70;;;1.50;;
73512;SDS011;61754;55.008;73.348;2022-08-01T14:07:24;4.18;;;1.55;;
73512;SDS011;61754;55.008;73.348;2022-08-01T14:09:50;5.88;;;1.70;;
73512;SDS011;61754;55.008;73.348;2022-08-01T14:12:16;9.20;;;1.40;;
73512;SDS011;61754;55.008;73.348;2022-08-01T14:14:47;5.57;;;1.60;;
73512;SDS011;61754;55.008;73.348;2022-08-01T14:17:13;1.60;;;1.10;;
73512;SDS011;61754;55.008;73.348;2022-08-01T14:19:39;5.38;;;1.30;;
73512;SDS011;61754;55.008;73.348;2022-08-01T14:22:11;4.18;;;1.13;;
73512;SDS011;61754;55.008;73.348;2022-08-01T14:24:37;6.53;;;1.45;;
73512;SDS011;61754;55.008;73.348;2022-08-01T14:27:03;2.25;;;1.20;;
73512;SDS011;61754;55.008;73.348;2022-08-01T14:29:39;8.95;;;1.90;;
73512;SDS011;61754;55.008;73.348;2022-08-01T14:32:05;5.75;;;1.75;;
73512;SDS011;61754;55.008;73.348;2022-08-01T14:34:41;2.42;;;1.80;;
73512;SDS011;61754;55.008;73.348;2022-08-01T14:37:07;8.68;;;1.98;;
73512;SDS011;61754;55.008;73.348;2022-08-01T14:39:36;4.38;;;1.58;;
73512;SDS011;61754;55.008;73.348;2022-08-01T14:42:03;3.50;;;1.55;;
73512;SDS011;61754;55.008;73.348;2022-08-01T14:44:29;5.65;;;1.80;;
73512;SDS011;61754;55.008;73.348;2022-08-01T14:46:59;4.70;;;2.00;;
73512;SDS011;61754;55.008;73.348;2022-08-01T14:49:25;10.85;;;2.58;;
73512;SDS011;61754;55.008;73.348;2022-08-01T14:51:51;6.43;;;2.63;;
73512;SDS011;61754;55.008;73.348;2022-08-01T14:54:17;4.93;;;2.85;;
73512;SDS011;61754;55.008;73.348;2022-08-01T14:56:44;2.75;;;2.55;;
73512;SDS011;61754;55.008;73.348;2022-08-01T14:59:10;7.75;;;2.72;;
73512;SDS011;61754;55.008;73.348;2022-08-01T15:01:36;3.67;;;2.63;;
73512;SDS011;61754;55.008;73.348;2022-08-01T15:04:02;10.23;;;2.58;;
73512;SDS011;61754;55.008;73.348;2022-08-01T15:06:31;7.85;;;2.60;;
73512;SDS011;61754;55.008;73.348;2022-08-01T15:08:57;6.65;;;3.10;;
73512;SDS011;61754;55.008;73.348;2022-08-01T15:11:23;17.13;;;2.65;;
73512;SDS011;61754;55.008;73.348;2022-08-01T15:13:49;9.85;;;2.55;;
73512;SDS011;61754;55.008;73.348;2022-08-01T15:16:34;7.85;;;1.90;;
73512;SDS011;61754;55.008;73.348;2022-08-01T15:19:01;4.60;;;1.75;;
73512;SDS011;61754;55.008;73.348;2022-08-01T15:21:27;5.30;;;1.90;;
73512;SDS011;61754;55.008;73.348;2022-08-01T15:23:57;4.55;;;2.08;;